createdAt,value
2019-02-05T00:09:30.585Z,14.9
2019-02-05T00:19:32.185Z,11
2019-02-05T00:29:39.294Z,12.1
2019-02-05T00:39:40.782Z,9.2
2019-02-05T00:49:42.630Z,10.3
2019-02-05T00:59:48.712Z,11.1
2019-02-05T01:09:50.532Z,8
2019-02-05T01:19:52.038Z,8.7
2019-02-05T01:30:02.888Z,7.8
2019-02-05T01:40:03.755Z,7.4
2019-02-05T01:50:04.928Z,5.5
2019-02-05T02:00:11.794Z,6.5
2019-02-05T02:10:12.649Z,5.3
2019-02-05T02:20:12.156Z,18.2
2019-02-05T02:30:22.223Z,11.9
2019-02-05T02:40:24.021Z,6.4
2019-02-05T02:50:23.478Z,14.7
2019-02-05T03:00:36.157Z,5.9
2019-02-05T03:10:38.111Z,4.7
2019-02-05T03:20:39.549Z,4.7
2019-02-05T03:30:53.212Z,9.1
2019-02-05T03:40:55.144Z,8.1
2019-02-05T03:50:58.169Z,5.6
2019-02-05T04:01:03.393Z,6.1
2019-02-05T04:11:05.001Z,9.2
2019-02-05T04:21:06.659Z,5.2
2019-02-05T04:31:20.449Z,4.2
2019-02-05T04:41:22.695Z,4.4
2019-02-05T04:51:24.806Z,5.2
2019-02-05T05:01:32.441Z,4.6
2019-02-05T05:11:36.158Z,4.1
2019-02-05T05:21:37.108Z,3.5
2019-02-05T05:31:41.566Z,5.8
2019-02-05T05:41:43.174Z,3.5
2019-02-05T05:51:46.211Z,2.5
2019-02-05T06:01:56.322Z,3.5
2019-02-05T06:11:57.848Z,3
2019-02-05T06:22:00.775Z,7.3
2019-02-05T06:32:07.901Z,4.7
2019-02-05T06:42:08.262Z,3.4
2019-02-05T06:52:12.734Z,3.3
2019-02-05T07:02:19.557Z,2.9
2019-02-05T07:12:24.915Z,2.9
2019-02-05T07:22:29.956Z,5.9
2019-02-05T07:32:33.972Z,5.5
2019-02-05T07:42:34.914Z,5.1
2019-02-05T07:52:36.056Z,3.5
2019-02-05T08:02:43.961Z,3
2019-02-05T08:12:45.662Z,4.1
2019-02-05T08:22:46.780Z,7
2019-02-05T08:32:53.744Z,9.8
2019-02-05T08:42:56.652Z,10.6
2019-02-05T08:52:58.952Z,8
2019-02-05T09:03:02.657Z,4.5
2019-02-05T09:13:07.777Z,4.1
2019-02-05T09:23:10.080Z,4.1
2019-02-05T09:33:13.125Z,4
2019-02-05T09:43:13.821Z,4.2
2019-02-05T09:53:16.749Z,3.8
2019-02-05T10:03:19.731Z,6.2
2019-02-05T10:13:23.407Z,4.3
2019-02-05T10:23:25.578Z,4.7
2019-02-05T10:33:30.850Z,5.8
2019-02-05T10:43:33.272Z,6.9
2019-02-05T10:53:36.146Z,7.3
2019-02-05T11:03:40.746Z,6.8
2019-02-05T11:13:43.123Z,15.2
2019-02-05T11:23:43.746Z,10.6
2019-02-05T11:33:52.132Z,7.2
2019-02-05T11:43:54.567Z,5.4
2019-02-05T11:53:57.011Z,6.3
2019-02-05T12:04:10.503Z,5.7
2019-02-05T12:14:11.885Z,3.8
2019-02-05T12:24:15.732Z,4.6
2019-02-05T12:34:17.973Z,4.3
2019-02-05T12:44:18.662Z,4.4
2019-02-05T12:54:21.022Z,3.8
2019-02-05T13:04:32.248Z,7.6
2019-02-05T13:14:37.486Z,8.9
2019-02-05T13:24:38.275Z,6.9
2019-02-05T13:51:49.312Z,10.4
2019-02-05T14:01:51.544Z,6.4
2019-02-05T14:11:52.168Z,6.1
2019-02-05T14:21:55.374Z,7.1
2019-02-05T14:32:02.766Z,28.1
2019-02-05T14:42:03.178Z,8
2019-02-05T14:52:05.072Z,85.4
2019-02-05T15:02:14.544Z,113.2
2019-02-05T15:12:17.880Z,26.6
2019-02-05T15:22:19.352Z,18.3
2019-02-05T15:32:25.910Z,14.8
2019-02-05T15:42:26.404Z,17.2
2019-02-05T15:52:38.502Z,11.2
2019-02-05T16:02:39.805Z,11.1
2019-02-05T16:12:41.737Z,9.9
2019-02-05T16:22:45.799Z,20.1
2019-02-05T16:32:50.425Z,31.1
2019-02-05T16:42:50.411Z,17.2
2019-02-05T16:52:53.567Z,17.9
2019-02-05T17:03:00.296Z,29.8
2019-02-05T17:13:04.507Z,20.4
2019-02-05T17:23:05.756Z,38.4
2019-02-05T17:33:11.664Z,34.2
2019-02-05T17:43:13.350Z,38.7
2019-02-05T17:53:15.360Z,31.8
2019-02-05T18:03:22.748Z,39.4
2019-02-05T18:13:25.078Z,40.6
2019-02-05T18:23:27.293Z,30.7
2019-02-05T18:33:37.048Z,34.6
2019-02-05T18:43:38.432Z,29.9
2019-02-05T18:53:43.336Z,40.5
2019-02-05T19:03:47.526Z,33.7
2019-02-05T19:13:50.484Z,31.3
2019-02-05T19:23:53.766Z,45.3
2019-02-05T19:33:59.059Z,37
2019-02-05T19:44:00.038Z,35
2019-02-05T19:54:07.504Z,24
2019-02-05T20:04:13.024Z,49
2019-02-05T20:14:14.537Z,72.7
2019-02-05T20:24:17.494Z,29.8
2019-02-05T20:34:21.382Z,20.4
2019-02-05T20:44:24.282Z,30.5
2019-02-05T20:54:28.640Z,40.6
2019-02-05T21:04:35.651Z,27.4
2019-02-05T21:14:49.957Z,28
2019-02-05T21:25:05.105Z,25.2
2019-02-05T21:35:07.825Z,32.5
2019-02-05T21:45:09.757Z,33.4
2019-02-05T21:55:14.792Z,31.2
2019-02-05T22:05:17.799Z,53.3
2019-02-05T22:15:22.694Z,41.5
2019-02-05T22:25:30.407Z,39
2019-02-05T22:35:31.314Z,27.6
2019-02-05T22:45:36.921Z,27.8
2019-02-05T22:55:38.919Z,15.6
2019-02-05T23:05:43.041Z,17.2
2019-02-05T23:15:41.696Z,57.4
2019-02-05T23:25:43.784Z,18.5
2019-02-05T23:35:47.768Z,18.3
2019-02-05T23:45:45.890Z,53.9
2019-02-05T23:56:03.800Z,17.5
